createdAt,value
2023-02-14T00:02:15.876Z,4.75
2023-02-14T00:07:17.627Z,4.80
2023-02-14T00:12:20.630Z,4.79
2023-02-14T00:17:22.279Z,4.67
2023-02-14T00:22:23.984Z,4.56
2023-02-14T00:27:27.097Z,4.46
2023-02-14T00:32:28.816Z,4.41
2023-02-14T00:37:30.553Z,4.47
2023-02-14T00:42:33.658Z,4.54
2023-02-14T00:47:35.383Z,4.54
2023-02-14T00:52:37.365Z,4.48
2023-02-14T00:57:40.396Z,4.52
2023-02-14T01:02:42.130Z,4.50
2023-02-14T01:07:43.822Z,4.49
2023-02-14T01:12:46.841Z,4.51
2023-02-14T01:17:48.665Z,4.41
2023-02-14T01:22:50.482Z,4.42
2023-02-14T01:27:53.623Z,4.37
2023-02-14T01:32:55.741Z,4.39
2023-02-14T01:37:57.712Z,4.38
2023-02-14T01:43:00.833Z,4.38
2023-02-14T01:48:02.546Z,4.41
2023-02-14T01:53:04.915Z,4.50
2023-02-14T01:58:09.273Z,4.52
2023-02-14T02:03:11.009Z,4.51
2023-02-14T02:08:12.709Z,4.53
2023-02-14T02:13:16.956Z,4.47
2023-02-14T02:18:20.057Z,4.56
2023-02-14T02:23:46.114Z,4.27
2023-02-14T02:29:00.966Z,4.18
2023-02-14T02:34:50.824Z,4.13
2023-02-14T02:40:05.839Z,4.11
2023-02-14T02:45:12.201Z,4.14
2023-02-14T02:50:38.283Z,4.02
2023-02-14T02:56:02.840Z,3.97
2023-02-14T03:01:09.052Z,3.89
2023-02-14T03:06:10.768Z,3.84
2023-02-14T03:11:14.154Z,3.70
2023-02-14T03:16:27.734Z,3.68
2023-02-14T03:21:31.913Z,3.63
2023-02-14T03:26:37.967Z,3.61
2023-02-14T03:31:44.853Z,3.55
2023-02-14T03:36:50.193Z,3.52
2023-02-14T03:42:00.128Z,3.32
2023-02-14T03:47:04.021Z,3.21
2023-02-14T03:52:05.721Z,3.11
2023-02-14T03:57:13.801Z,3.03
2023-02-14T04:02:17.461Z,2.99
2023-02-14T04:07:20.127Z,3.07
2023-02-14T04:12:36.802Z,3.02
2023-02-14T04:17:58.126Z,2.92
2023-02-14T04:23:01.357Z,2.82
2023-02-14T04:28:06.193Z,2.78
2023-02-14T04:33:08.626Z,2.71
2023-02-14T04:38:10.373Z,2.64
2023-02-14T04:43:13.404Z,2.63
2023-02-14T04:48:15.135Z,2.56
2023-02-14T04:53:19.272Z,2.54
2023-02-14T04:58:22.345Z,2.44
2023-02-14T05:03:24.324Z,2.33
2023-02-14T05:08:26.043Z,2.21
2023-02-14T05:13:29.188Z,2.09
2023-02-14T05:18:30.901Z,2.11
2023-02-14T05:23:32.671Z,2.07
2023-02-14T05:28:35.883Z,2.05
2023-02-14T05:33:37.784Z,2.07
2023-02-14T05:38:39.594Z,2.00
2023-02-14T05:43:42.616Z,2.00
2023-02-14T05:48:45.751Z,2.00
2023-02-14T05:53:47.452Z,1.97
2023-02-14T05:58:50.519Z,2.01
2023-02-14T06:03:52.300Z,2.00
2023-02-14T06:08:54.082Z,1.94
2023-02-14T06:13:57.670Z,1.93
2023-02-14T06:18:59.340Z,1.98
2023-02-14T06:24:01.150Z,1.99
2023-02-14T06:29:04.517Z,2.02
2023-02-14T06:34:06.288Z,1.95
2023-02-14T06:39:08.007Z,1.83
2023-02-14T06:44:11.177Z,1.88
2023-02-14T06:49:12.962Z,1.90
2023-02-14T06:54:14.730Z,2.13
2023-02-14T06:59:18.072Z,2.29
2023-02-14T07:04:19.779Z,2.53
2023-02-14T07:09:21.593Z,2.71
2023-02-14T07:14:24.843Z,2.75
2023-02-14T07:19:26.620Z,2.81
2023-02-14T07:24:28.421Z,3.04
2023-02-14T07:29:31.484Z,3.26
2023-02-14T07:34:33.484Z,3.34
2023-02-14T07:39:35.177Z,3.58
2023-02-14T07:44:38.988Z,3.95
2023-02-14T07:49:40.703Z,4.34
2023-02-14T07:54:42.415Z,4.45
2023-02-14T07:59:45.440Z,4.76
2023-02-14T08:04:47.205Z,5.02
2023-02-14T08:09:48.923Z,5.22
2023-02-14T08:14:52.069Z,5.24
2023-02-14T08:19:53.770Z,5.46
2023-02-14T08:24:55.487Z,5.76
2023-02-14T08:29:58.584Z,6.32
2023-02-14T08:35:00.313Z,6.93
2023-02-14T08:40:02.014Z,7.30
2023-02-14T08:45:05.423Z,7.50
2023-02-14T08:50:08.256Z,7.63
2023-02-14T08:55:10.206Z,7.91
2023-02-14T09:00:14.551Z,8.34
2023-02-14T09:05:16.443Z,8.21
2023-02-14T09:10:18.665Z,7.92
2023-02-14T09:15:21.719Z,8.10
2023-02-14T09:20:23.465Z,8.49
2023-02-14T09:25:25.295Z,8.60
2023-02-14T09:30:28.437Z,9.23
2023-02-14T09:35:30.159Z,9.87
2023-02-14T09:40:32.120Z,9.95
2023-02-14T09:45:35.242Z,10.43
2023-02-14T09:50:40.227Z,10.97
2023-02-14T09:55:43.736Z,12.40
2023-02-14T10:00:48.597Z,12.77
2023-02-14T10:05:55.159Z,11.99
2023-02-14T10:11:01.899Z,11.52
2023-02-14T10:16:08.421Z,13.44
2023-02-14T10:21:14.055Z,16.21
2023-02-14T10:26:17.361Z,18.78
2023-02-14T10:31:21.730Z,21.87
2023-02-14T10:36:31.869Z,24.17
2023-02-14T10:41:38.304Z,23.83
2023-02-14T10:46:44.271Z,23.95
2023-02-14T10:51:46.976Z,25.55
2023-02-14T10:56:50.480Z,24.17
2023-02-14T11:01:53.905Z,25.18
2023-02-14T11:06:55.612Z,24.90
2023-02-14T11:11:58.776Z,23.29
2023-02-14T11:17:20.229Z,23.60
2023-02-14T11:22:28.884Z,21.52
2023-02-14T11:27:30.611Z,17.35
2023-02-14T11:32:34.361Z,14.87
2023-02-14T11:37:37.978Z,13.90
2023-02-14T11:42:41.730Z,13.67
2023-02-14T11:47:45.256Z,13.64
2023-02-14T11:52:49.003Z,13.92
2023-02-14T11:57:50.762Z,13.89
2023-02-14T12:02:53.833Z,14.01
2023-02-14T12:07:56.046Z,14.24
2023-02-14T12:12:59.691Z,14.16
2023-02-14T12:18:41.444Z,14.29
2023-02-14T12:23:45.157Z,14.36
2023-02-14T12:28:49.906Z,14.26
2023-02-14T12:33:52.967Z,14.19
2023-02-14T12:38:57.598Z,14.28
2023-02-14T12:44:01.310Z,14.17
2023-02-14T12:49:22.484Z,14.12
2023-02-14T12:54:32.151Z,14.57
2023-02-14T12:59:43.341Z,14.72
2023-02-14T13:05:11.164Z,14.71
2023-02-14T13:10:26.899Z,14.76
2023-02-14T13:15:33.726Z,14.75
2023-02-14T13:20:49.758Z,14.95
2023-02-14T13:26:13.790Z,15.06
2023-02-14T13:31:27.601Z,15.08
2023-02-14T13:36:39.019Z,15.17
2023-02-14T13:41:42.040Z,15.07
2023-02-14T13:46:51.660Z,15.12
2023-02-14T13:52:00.539Z,15.12
2023-02-14T13:57:03.941Z,14.99
2023-02-14T14:02:31.129Z,14.83
2023-02-14T14:07:35.060Z,14.48
2023-02-14T14:12:41.507Z,14.27
2023-02-14T14:17:46.050Z,14.02
2023-02-14T14:22:49.498Z,13.82
2023-02-14T14:27:51.241Z,13.68
2023-02-14T14:32:52.929Z,13.35
2023-02-14T14:37:56.818Z,13.18
2023-02-14T14:43:06.451Z,13.14
2023-02-14T14:48:09.393Z,12.80
2023-02-14T14:53:19.800Z,12.71
2023-02-14T14:58:39.317Z,12.35
2023-02-14T15:03:41.059Z,12.13
2023-02-14T15:08:44.081Z,11.62
2023-02-14T15:13:49.587Z,11.45
2023-02-14T15:18:51.610Z,11.05
2023-02-14T15:23:54.910Z,10.89
2023-02-14T15:28:57.937Z,10.52
2023-02-14T15:34:00.174Z,10.32
2023-02-14T15:39:06.137Z,10.19
2023-02-14T15:44:18.542Z,10.01
2023-02-14T15:49:21.045Z,9.78
2023-02-14T15:54:28.484Z,9.70
2023-02-14T15:59:31.037Z,9.54
2023-02-14T16:04:33.805Z,9.42
2023-02-14T16:09:37.667Z,9.25
2023-02-14T16:14:40.961Z,9.16
2023-02-14T16:19:43.566Z,8.98
2023-02-14T16:24:46.562Z,8.72
2023-02-14T16:29:48.398Z,8.58
2023-02-14T16:34:50.259Z,8.48
2023-02-14T16:39:54.458Z,8.42
2023-02-14T16:44:56.122Z,8.29
2023-02-14T16:49:57.782Z,8.18
2023-02-14T16:55:00.819Z,8.03
2023-02-14T17:00:03.613Z,7.87
2023-02-14T17:05:05.945Z,7.69
2023-02-14T17:10:10.684Z,7.52
2023-02-14T17:15:14.081Z,7.47
2023-02-14T17:20:15.860Z,7.39
2023-02-14T17:25:19.153Z,7.29
2023-02-14T17:30:21.146Z,7.16
2023-02-14T17:35:22.853Z,7.03
2023-02-14T17:40:26.746Z,6.98
2023-02-14T17:45:28.468Z,6.90
2023-02-14T17:50:30.243Z,6.82
2023-02-14T17:55:35.668Z,6.68
2023-02-14T18:00:37.411Z,6.42
2023-02-14T18:05:39.165Z,6.43
2023-02-14T18:10:42.354Z,6.32
2023-02-14T18:15:45.580Z,6.13
2023-02-14T18:20:52.952Z,6.01
2023-02-14T18:25:57.152Z,5.70
2023-02-14T18:31:02.770Z,5.74
2023-02-14T18:36:05.352Z,5.59
2023-02-14T18:41:09.452Z,5.46
2023-02-14T18:46:12.284Z,5.16
2023-02-14T18:51:15.475Z,5.42
2023-02-14T18:56:19.493Z,5.56
2023-02-14T19:01:22.205Z,5.46
2023-02-14T19:06:24.028Z,5.36
2023-02-14T19:11:28.643Z,5.25
2023-02-14T19:16:31.707Z,5.15
2023-02-14T19:21:34.038Z,4.97
2023-02-14T19:26:39.941Z,4.72
2023-02-14T19:31:45.672Z,4.75
2023-02-14T19:36:48.050Z,4.69
2023-02-14T19:41:51.301Z,4.48
2023-02-14T19:46:56.517Z,4.21
2023-02-14T19:51:58.830Z,4.21
2023-02-14T19:57:01.912Z,4.10
2023-02-14T20:02:03.671Z,4.17
2023-02-14T20:07:05.475Z,4.13
2023-02-14T20:12:09.541Z,3.89
2023-02-14T20:17:11.727Z,3.69
2023-02-14T20:22:13.563Z,3.88
2023-02-14T20:27:16.740Z,3.75
2023-02-14T20:32:18.459Z,3.68
2023-02-14T20:37:20.162Z,3.43
2023-02-14T20:42:23.896Z,3.35
2023-02-14T20:47:25.644Z,3.49
2023-02-14T20:52:27.936Z,3.43
2023-02-14T20:57:31.081Z,3.44
2023-02-14T21:02:32.809Z,3.50
2023-02-14T21:07:34.533Z,3.48
2023-02-14T21:12:38.594Z,3.52
2023-02-14T21:17:40.396Z,3.59
2023-02-14T21:22:42.143Z,3.60
2023-02-14T21:27:46.393Z,3.46
2023-02-14T21:32:48.254Z,3.48
2023-02-14T21:37:49.982Z,3.18
2023-02-14T21:42:53.053Z,3.20
2023-02-14T21:48:13.448Z,3.29
2023-02-14T21:53:15.298Z,3.26
2023-02-14T21:58:19.501Z,3.25
2023-02-14T22:03:21.961Z,3.30
2023-02-14T22:08:23.659Z,3.24
2023-02-14T22:13:26.731Z,3.15
2023-02-14T22:18:28.689Z,3.11
2023-02-14T22:23:30.914Z,3.17
2023-02-14T22:28:33.984Z,3.14
2023-02-14T22:33:37.787Z,3.02
2023-02-14T22:38:39.802Z,3.13
2023-02-14T22:43:42.901Z,3.26
2023-02-14T22:48:44.861Z,3.37
2023-02-14T22:53:46.721Z,3.37
2023-02-14T22:58:53.240Z,3.34
2023-02-14T23:03:55.421Z,3.32
2023-02-14T23:08:57.194Z,3.38
2023-02-14T23:14:18.803Z,3.47
2023-02-14T23:19:40.194Z,3.38
2023-02-14T23:24:41.931Z,3.14
2023-02-14T23:29:45.058Z,2.94
2023-02-14T23:34:46.839Z,2.61
2023-02-14T23:39:48.585Z,2.66
2023-02-14T23:44:51.653Z,2.71
2023-02-14T23:49:53.349Z,2.57
2023-02-14T23:54:55.074Z,2.47
2023-02-14T23:59:58.082Z,2.55
